sensor_id;sensor_type;location;lat;lon;timestamp;P1;durP1;ratioP1;P2;durP2;ratioP2
58152;SDS011;43967;51.634;5.566;2022-09-03T00:01:14;10.67;;;3.50;;
58152;SDS011;43967;51.634;5.566;2022-09-03T00:06:54;9.73;;;3.30;;
58152;SDS011;43967;51.634;5.566;2022-09-03T00:11:59;9.73;;;3.10;;
58152;SDS011;43967;51.634;5.566;2022-09-03T00:17:04;11.15;;;3.55;;
58152;SDS011;43967;51.634;5.566;2022-09-03T00:22:18;8.27;;;2.90;;
58152;SDS011;43967;51.634;5.566;2022-09-03T00:27:35;11.15;;;3.72;;
58152;SDS011;43967;51.634;5.566;2022-09-03T00:32:40;10.20;;;3.38;;
58152;SDS011;43967;51.634;5.566;2022-09-03T00:38:08;8.83;;;3.00;;
58152;SDS011;43967;51.634;5.566;2022-09-03T00:48:32;10.95;;;3.58;;
58152;SDS011;43967;51.634;5.566;2022-09-03T00:59:35;9.10;;;3.13;;
58152;SDS011;43967;51.634;5.566;2022-09-03T01:04:55;10.93;;;3.55;;
58152;SDS011;43967;51.634;5.566;2022-09-03T01:15:50;12.27;;;3.10;;
58152;SDS011;43967;51.634;5.566;2022-09-03T01:21:13;8.35;;;2.88;;
58152;SDS011;43967;51.634;5.566;2022-09-03T01:31:53;7.73;;;2.83;;
58152;SDS011;43967;51.634;5.566;2022-09-03T01:37:02;8.27;;;3.05;;
58152;SDS011;43967;51.634;5.566;2022-09-03T01:42:22;8.02;;;2.97;;
58152;SDS011;43967;51.634;5.566;2022-09-03T01:47:55;7.97;;;2.63;;
58152;SDS011;43967;51.634;5.566;2022-09-03T01:58:25;7.22;;;2.72;;
58152;SDS011;43967;51.634;5.566;2022-09-03T02:03:37;8.38;;;3.00;;
58152;SDS011;43967;51.634;5.566;2022-09-03T02:08:40;8.33;;;2.33;;
58152;SDS011;43967;51.634;5.566;2022-09-03T02:13:52;7.30;;;2.58;;
58152;SDS011;43967;51.634;5.566;2022-09-03T02:19:06;7.72;;;2.95;;
58152;SDS011;43967;51.634;5.566;2022-09-03T02:24:10;8.50;;;2.90;;
58152;SDS011;43967;51.634;5.566;2022-09-03T02:29:13;7.40;;;2.47;;
58152;SDS011;43967;51.634;5.566;2022-09-03T02:34:15;8.13;;;2.78;;
58152;SDS011;43967;51.634;5.566;2022-09-03T02:39:17;7.57;;;2.63;;
58152;SDS011;43967;51.634;5.566;2022-09-03T02:44:23;7.33;;;2.90;;
58152;SDS011;43967;51.634;5.566;2022-09-03T02:49:29;7.75;;;2.92;;
58152;SDS011;43967;51.634;5.566;2022-09-03T02:54:30;7.38;;;2.83;;
58152;SDS011;43967;51.634;5.566;2022-09-03T02:59:33;7.03;;;2.30;;
58152;SDS011;43967;51.634;5.566;2022-09-03T03:04:34;7.30;;;2.42;;
58152;SDS011;43967;51.634;5.566;2022-09-03T03:09:35;6.65;;;2.35;;
58152;SDS011;43967;51.634;5.566;2022-09-03T03:14:37;6.33;;;2.53;;
58152;SDS011;43967;51.634;5.566;2022-09-03T03:19:38;6.80;;;2.63;;
58152;SDS011;43967;51.634;5.566;2022-09-03T03:24:39;7.53;;;2.40;;
58152;SDS011;43967;51.634;5.566;2022-09-03T03:29:40;8.70;;;2.30;;
58152;SDS011;43967;51.634;5.566;2022-09-03T03:34:41;7.20;;;2.63;;
58152;SDS011;43967;51.634;5.566;2022-09-03T03:39:42;8.35;;;2.65;;
58152;SDS011;43967;51.634;5.566;2022-09-03T03:44:43;7.07;;;2.70;;
58152;SDS011;43967;51.634;5.566;2022-09-03T03:49:44;6.70;;;2.33;;
58152;SDS011;43967;51.634;5.566;2022-09-03T03:54:45;6.50;;;2.30;;
58152;SDS011;43967;51.634;5.566;2022-09-03T03:59:46;6.40;;;2.30;;
58152;SDS011;43967;51.634;5.566;2022-09-03T04:04:47;7.87;;;2.50;;
58152;SDS011;43967;51.634;5.566;2022-09-03T04:09:49;7.30;;;2.47;;
58152;SDS011;43967;51.634;5.566;2022-09-03T04:14:50;6.65;;;2.28;;
58152;SDS011;43967;51.634;5.566;2022-09-03T04:19:51;7.30;;;2.67;;
58152;SDS011;43967;51.634;5.566;2022-09-03T04:24:52;6.87;;;2.70;;
58152;SDS011;43967;51.634;5.566;2022-09-03T04:29:53;6.20;;;2.17;;
58152;SDS011;43967;51.634;5.566;2022-09-03T04:34:54;7.32;;;2.72;;
58152;SDS011;43967;51.634;5.566;2022-09-03T04:39:55;7.20;;;2.20;;
58152;SDS011;43967;51.634;5.566;2022-09-03T04:44:56;6.28;;;2.05;;
58152;SDS011;43967;51.634;5.566;2022-09-03T04:49:57;5.78;;;2.17;;
58152;SDS011;43967;51.634;5.566;2022-09-03T04:54:59;6.40;;;2.23;;
58152;SDS011;43967;51.634;5.566;2022-09-03T05:00:00;7.13;;;2.30;;
58152;SDS011;43967;51.634;5.566;2022-09-03T05:05:02;6.47;;;2.03;;
58152;SDS011;43967;51.634;5.566;2022-09-03T05:10:05;7.03;;;2.40;;
58152;SDS011;43967;51.634;5.566;2022-09-03T05:15:08;6.70;;;2.50;;
58152;SDS011;43967;51.634;5.566;2022-09-03T05:20:09;7.97;;;2.55;;
58152;SDS011;43967;51.634;5.566;2022-09-03T05:25:10;6.70;;;2.35;;
58152;SDS011;43967;51.634;5.566;2022-09-03T05:30:11;7.03;;;2.03;;
58152;SDS011;43967;51.634;5.566;2022-09-03T05:35:12;6.95;;;2.30;;
58152;SDS011;43967;51.634;5.566;2022-09-03T05:40:14;6.22;;;2.38;;
58152;SDS011;43967;51.634;5.566;2022-09-03T05:45:15;7.43;;;2.30;;
58152;SDS011;43967;51.634;5.566;2022-09-03T05:50:16;7.15;;;2.22;;
58152;SDS011;43967;51.634;5.566;2022-09-03T05:55:18;7.00;;;2.45;;
58152;SDS011;43967;51.634;5.566;2022-09-03T06:00:19;5.97;;;2.20;;
58152;SDS011;43967;51.634;5.566;2022-09-03T06:05:20;9.33;;;2.27;;
58152;SDS011;43967;51.634;5.566;2022-09-03T06:10:21;6.07;;;2.10;;
58152;SDS011;43967;51.634;5.566;2022-09-03T06:15:22;6.65;;;2.17;;
58152;SDS011;43967;51.634;5.566;2022-09-03T06:20:24;6.43;;;2.03;;
58152;SDS011;43967;51.634;5.566;2022-09-03T06:25:25;6.22;;;2.10;;
58152;SDS011;43967;51.634;5.566;2022-09-03T06:30:26;5.75;;;2.08;;
58152;SDS011;43967;51.634;5.566;2022-09-03T06:35:27;6.93;;;2.10;;
58152;SDS011;43967;51.634;5.566;2022-09-03T06:40:28;8.50;;;2.83;;
58152;SDS011;43967;51.634;5.566;2022-09-03T06:45:29;7.75;;;3.08;;
58152;SDS011;43967;51.634;5.566;2022-09-03T06:50:30;8.67;;;3.00;;
58152;SDS011;43967;51.634;5.566;2022-09-03T06:55:31;10.20;;;3.00;;
58152;SDS011;43967;51.634;5.566;2022-09-03T07:00:32;8.63;;;2.42;;
58152;SDS011;43967;51.634;5.566;2022-09-03T07:05:34;10.23;;;2.70;;
58152;SDS011;43967;51.634;5.566;2022-09-03T07:10:35;8.90;;;2.53;;
58152;SDS011;43967;51.634;5.566;2022-09-03T07:15:37;11.27;;;2.80;;
58152;SDS011;43967;51.634;5.566;2022-09-03T07:20:41;11.90;;;2.47;;
58152;SDS011;43967;51.634;5.566;2022-09-03T07:25:43;7.87;;;2.67;;
58152;SDS011;43967;51.634;5.566;2022-09-03T07:30:53;9.02;;;2.70;;
58152;SDS011;43967;51.634;5.566;2022-09-03T07:36:02;6.85;;;2.50;;
58152;SDS011;43967;51.634;5.566;2022-09-03T07:41:05;8.00;;;2.50;;
58152;SDS011;43967;51.634;5.566;2022-09-03T07:46:11;8.80;;;2.50;;
58152;SDS011;43967;51.634;5.566;2022-09-03T07:51:13;7.80;;;2.33;;
58152;SDS011;43967;51.634;5.566;2022-09-03T07:56:14;8.60;;;2.30;;
58152;SDS011;43967;51.634;5.566;2022-09-03T08:01:16;6.30;;;2.37;;
58152;SDS011;43967;51.634;5.566;2022-09-03T08:06:20;7.97;;;2.40;;
58152;SDS011;43967;51.634;5.566;2022-09-03T08:11:24;10.57;;;2.22;;
58152;SDS011;43967;51.634;5.566;2022-09-03T08:16:26;10.33;;;2.57;;
58152;SDS011;43967;51.634;5.566;2022-09-03T08:21:28;7.70;;;2.38;;
58152;SDS011;43967;51.634;5.566;2022-09-03T08:26:31;6.60;;;2.58;;
58152;SDS011;43967;51.634;5.566;2022-09-03T08:31:33;12.73;;;2.57;;
58152;SDS011;43967;51.634;5.566;2022-09-03T08:36:36;7.47;;;2.43;;
58152;SDS011;43967;51.634;5.566;2022-09-03T08:47:10;7.07;;;1.92;;
58152;SDS011;43967;51.634;5.566;2022-09-03T08:57:45;6.68;;;2.28;;
58152;SDS011;43967;51.634;5.566;2022-09-03T09:02:57;8.48;;;2.42;;
58152;SDS011;43967;51.634;5.566;2022-09-03T09:08:11;8.43;;;2.20;;
58152;SDS011;43967;51.634;5.566;2022-09-03T09:23:48;9.23;;;2.27;;
58152;SDS011;43967;51.634;5.566;2022-09-03T09:28:52;6.93;;;2.10;;
58152;SDS011;43967;51.634;5.566;2022-09-03T09:34:03;7.75;;;2.38;;
58152;SDS011;43967;51.634;5.566;2022-09-03T09:39:09;8.32;;;2.00;;
58152;SDS011;43967;51.634;5.566;2022-09-03T09:44:20;8.67;;;2.10;;
58152;SDS011;43967;51.634;5.566;2022-09-03T09:49:24;8.15;;;2.30;;
58152;SDS011;43967;51.634;5.566;2022-09-03T09:54:36;7.68;;;2.17;;
58152;SDS011;43967;51.634;5.566;2022-09-03T09:59:38;9.23;;;2.33;;
58152;SDS011;43967;51.634;5.566;2022-09-03T10:04:39;9.07;;;2.10;;
58152;SDS011;43967;51.634;5.566;2022-09-03T10:09:41;7.65;;;2.10;;
58152;SDS011;43967;51.634;5.566;2022-09-03T10:41:26;9.05;;;2.17;;
58152;SDS011;43967;51.634;5.566;2022-09-03T10:46:35;6.22;;;2.00;;
58152;SDS011;43967;51.634;5.566;2022-09-03T10:52:02;6.53;;;2.10;;
58152;SDS011;43967;51.634;5.566;2022-09-03T11:08:00;6.33;;;1.77;;
58152;SDS011;43967;51.634;5.566;2022-09-03T11:13:21;8.20;;;2.03;;
58152;SDS011;43967;51.634;5.566;2022-09-03T11:18:42;9.98;;;2.30;;
58152;SDS011;43967;51.634;5.566;2022-09-03T11:24:42;7.00;;;2.13;;
58152;SDS011;43967;51.634;5.566;2022-09-03T11:29:25;7.80;;;2.50;;
58152;SDS011;43967;51.634;5.566;2022-09-03T11:34:53;6.45;;;2.17;;
58152;SDS011;43967;51.634;5.566;2022-09-03T11:40:16;8.70;;;2.03;;
58152;SDS011;43967;51.634;5.566;2022-09-03T11:50:28;8.30;;;1.90;;
58152;SDS011;43967;51.634;5.566;2022-09-03T11:55:32;8.93;;;2.28;;
58152;SDS011;43967;51.634;5.566;2022-09-03T12:00:49;8.23;;;2.10;;
58152;SDS011;43967;51.634;5.566;2022-09-03T12:11:22;7.72;;;2.05;;
58152;SDS011;43967;51.634;5.566;2022-09-03T12:16:50;7.25;;;2.28;;
58152;SDS011;43967;51.634;5.566;2022-09-03T12:22:14;9.17;;;2.30;;
58152;SDS011;43967;51.634;5.566;2022-09-03T12:27:18;7.05;;;2.30;;
58152;SDS011;43967;51.634;5.566;2022-09-03T12:32:21;7.85;;;2.33;;
58152;SDS011;43967;51.634;5.566;2022-09-03T12:37:23;7.97;;;2.23;;
58152;SDS011;43967;51.634;5.566;2022-09-03T12:42:26;8.57;;;2.35;;
58152;SDS011;43967;51.634;5.566;2022-09-03T12:47:29;9.18;;;2.50;;
58152;SDS011;43967;51.634;5.566;2022-09-03T12:52:52;6.43;;;2.30;;
58152;SDS011;43967;51.634;5.566;2022-09-03T12:58:02;7.83;;;2.43;;
58152;SDS011;43967;51.634;5.566;2022-09-03T13:08:31;8.48;;;2.33;;
58152;SDS011;43967;51.634;5.566;2022-09-03T13:13:38;7.20;;;2.13;;
58152;SDS011;43967;51.634;5.566;2022-09-03T13:18:54;7.30;;;2.00;;
58152;SDS011;43967;51.634;5.566;2022-09-03T13:29:33;7.97;;;1.97;;
58152;SDS011;43967;51.634;5.566;2022-09-03T13:34:41;5.97;;;1.90;;
58152;SDS011;43967;51.634;5.566;2022-09-03T13:40:31;6.78;;;2.00;;
58152;SDS011;43967;51.634;5.566;2022-09-03T13:51:41;6.40;;;1.70;;
58152;SDS011;43967;51.634;5.566;2022-09-03T14:02:27;6.63;;;1.90;;
58152;SDS011;43967;51.634;5.566;2022-09-03T14:07:41;7.00;;;2.30;;
58152;SDS011;43967;51.634;5.566;2022-09-03T14:23:45;6.20;;;1.93;;
58152;SDS011;43967;51.634;5.566;2022-09-03T14:28:58;5.60;;;2.00;;
58152;SDS011;43967;51.634;5.566;2022-09-03T14:34:05;5.88;;;2.10;;
58152;SDS011;43967;51.634;5.566;2022-09-03T14:39:45;7.57;;;2.30;;
58152;SDS011;43967;51.634;5.566;2022-09-03T14:56:00;7.28;;;2.10;;
58152;SDS011;43967;51.634;5.566;2022-09-03T15:01:17;5.80;;;2.00;;
58152;SDS011;43967;51.634;5.566;2022-09-03T15:06:27;9.93;;;2.38;;
58152;SDS011;43967;51.634;5.566;2022-09-03T15:11:48;6.22;;;2.38;;
58152;SDS011;43967;51.634;5.566;2022-09-03T15:17:13;6.13;;;2.33;;
58152;SDS011;43967;51.634;5.566;2022-09-03T15:22:25;7.13;;;2.28;;
58152;SDS011;43967;51.634;5.566;2022-09-03T15:43:32;6.93;;;2.70;;
58152;SDS011;43967;51.634;5.566;2022-09-03T15:54:00;7.70;;;2.13;;
58152;SDS011;43967;51.634;5.566;2022-09-03T15:59:37;7.82;;;2.45;;
58152;SDS011;43967;51.634;5.566;2022-09-03T16:04:53;8.23;;;2.50;;
58152;SDS011;43967;51.634;5.566;2022-09-03T16:15:29;6.20;;;2.60;;
58152;SDS011;43967;51.634;5.566;2022-09-03T16:20:37;8.05;;;3.17;;
58152;SDS011;43967;51.634;5.566;2022-09-03T16:25:56;9.50;;;2.97;;
58152;SDS011;43967;51.634;5.566;2022-09-03T16:46:59;8.77;;;2.60;;
58152;SDS011;43967;51.634;5.566;2022-09-03T16:52:27;8.30;;;2.80;;
58152;SDS011;43967;51.634;5.566;2022-09-03T21:46:35;9.65;;;3.35;;
58152;SDS011;43967;51.634;5.566;2022-09-03T21:51:43;9.20;;;3.33;;
58152;SDS011;43967;51.634;5.566;2022-09-03T22:02:25;8.75;;;3.35;;
58152;SDS011;43967;51.634;5.566;2022-09-03T22:07:38;8.82;;;3.15;;
58152;SDS011;43967;51.634;5.566;2022-09-03T22:12:47;10.37;;;3.33;;
58152;SDS011;43967;51.634;5.566;2022-09-03T22:23:35;8.85;;;3.65;;
58152;SDS011;43967;51.634;5.566;2022-09-03T22:28:45;12.17;;;3.37;;
58152;SDS011;43967;51.634;5.566;2022-09-03T22:50:14;10.10;;;3.67;;
58152;SDS011;43967;51.634;5.566;2022-09-03T22:55:28;8.60;;;3.58;;
58152;SDS011;43967;51.634;5.566;2022-09-03T23:00:32;7.78;;;3.17;;
58152;SDS011;43967;51.634;5.566;2022-09-03T23:05:43;7.60;;;3.90;;
58152;SDS011;43967;51.634;5.566;2022-09-03T23:21:52;8.40;;;3.50;;
58152;SDS011;43967;51.634;5.566;2022-09-03T23:27:07;8.27;;;3.88;;
58152;SDS011;43967;51.634;5.566;2022-09-03T23:32:14;7.82;;;3.58;;
58152;SDS011;43967;51.634;5.566;2022-09-03T23:48:15;10.73;;;3.85;;
58152;SDS011;43967;51.634;5.566;2022-09-03T23:53:30;9.75;;;4.03;;
58152;SDS011;43967;51.634;5.566;2022-09-03T23:58:46;9.07;;;3.47;;
